createdAt,value
2017-09-05T00:00:06.984Z,1013.72
2017-09-05T00:01:06.943Z,1013.72
2017-09-05T00:02:06.902Z,1013.75
2017-09-05T00:03:06.870Z,1013.77
2017-09-05T00:04:06.916Z,1013.82
2017-09-05T00:05:06.803Z,1013.80
2017-09-05T00:06:06.773Z,1013.83
2017-09-05T00:07:06.738Z,1013.85
2017-09-05T00:08:06.708Z,1013.82
2017-09-05T00:09:06.666Z,1013.85
2017-09-05T00:10:06.631Z,1013.82
2017-09-05T00:11:06.595Z,1013.82
2017-09-05T00:12:06.557Z,1013.79
2017-09-05T00:13:06.529Z,1013.81
2017-09-05T00:14:06.496Z,1013.79
2017-09-05T00:15:06.464Z,1013.76
2017-09-05T00:16:06.466Z,1013.74
2017-09-05T00:17:06.393Z,1013.78
2017-09-05T00:18:06.360Z,1013.73
2017-09-05T00:19:06.327Z,1013.75
2017-09-05T00:20:06.287Z,1013.70
2017-09-05T00:21:06.253Z,1013.73
2017-09-05T00:22:06.223Z,1013.78
2017-09-05T00:23:06.184Z,1013.72
2017-09-05T00:24:06.145Z,1013.75
2017-09-05T00:25:06.109Z,1013.79
2017-09-05T00:26:06.078Z,1013.79
2017-09-05T00:27:06.041Z,1013.76
2017-09-05T00:28:06.005Z,1013.82
2017-09-05T00:29:05.974Z,1013.84
2017-09-05T00:30:05.941Z,1013.85
2017-09-05T00:31:05.904Z,1013.80
2017-09-05T00:32:05.866Z,1013.82
2017-09-05T00:33:05.836Z,1013.80
2017-09-05T00:34:05.801Z,1013.78
2017-09-05T00:35:05.764Z,1013.81
2017-09-05T00:36:05.730Z,1013.79
2017-09-05T00:37:05.694Z,1013.81
2017-09-05T00:38:05.662Z,1013.81
2017-09-05T00:39:05.623Z,1013.76
2017-09-05T00:40:05.591Z,1013.80
2017-09-05T00:41:05.561Z,1013.76
2017-09-05T00:42:05.523Z,1013.77
2017-09-05T00:43:05.485Z,1013.77
2017-09-05T00:44:05.457Z,1013.78
2017-09-05T00:45:05.426Z,1013.78
2017-09-05T00:46:05.386Z,1013.77
2017-09-05T00:47:05.348Z,1013.74
2017-09-05T00:48:05.312Z,1013.74
2017-09-05T00:49:05.278Z,1013.74
2017-09-05T00:50:05.247Z,1013.72
2017-09-05T00:51:05.214Z,1013.73
2017-09-05T00:52:05.172Z,1013.71
2017-09-05T00:53:05.142Z,1013.74
2017-09-05T00:54:05.102Z,1013.76
2017-09-05T00:55:05.064Z,1013.76
2017-09-05T00:56:05.039Z,1013.81
2017-09-05T00:57:05.000Z,1013.81
2017-09-05T00:58:04.967Z,1013.82
2017-09-05T00:59:04.930Z,1013.83
2017-09-05T01:00:04.893Z,1013.83
2017-09-05T01:01:04.871Z,1013.82
2017-09-05T01:02:04.855Z,1013.78
2017-09-05T01:03:04.788Z,1013.81
2017-09-05T01:04:04.755Z,1013.76
2017-09-05T01:05:04.721Z,1013.78
2017-09-05T01:06:04.689Z,1013.77
2017-09-05T01:07:04.650Z,1013.74
2017-09-05T01:08:04.615Z,1013.69
2017-09-05T01:09:04.579Z,1013.74
2017-09-05T01:10:04.581Z,1013.70
2017-09-05T01:11:04.515Z,1013.71
2017-09-05T01:12:04.479Z,1013.71
2017-09-05T01:13:04.447Z,1013.66
2017-09-05T01:14:04.405Z,1013.68
2017-09-05T01:15:04.375Z,1013.67
2017-09-05T01:16:04.332Z,1013.66
2017-09-05T01:17:04.302Z,1013.67
2017-09-05T01:18:04.264Z,1013.64
2017-09-05T01:19:04.237Z,1013.65
2017-09-05T01:20:04.195Z,1013.67
2017-09-05T01:21:04.165Z,1013.66
2017-09-05T01:22:04.124Z,1013.68
2017-09-05T01:23:04.096Z,1013.67
2017-09-05T01:24:04.063Z,1013.66
2017-09-05T01:25:04.027Z,1013.66
2017-09-05T01:26:03.989Z,1013.67
2017-09-05T01:27:03.954Z,1013.64
2017-09-05T01:28:03.911Z,1013.63
2017-09-05T01:29:03.881Z,1013.58
2017-09-05T01:30:03.852Z,1013.61
2017-09-05T01:31:03.817Z,1013.60
2017-09-05T01:32:03.779Z,1013.63
2017-09-05T01:33:03.745Z,1013.64
2017-09-05T01:34:03.712Z,1013.63
2017-09-05T01:35:03.675Z,1013.62
2017-09-05T01:36:03.640Z,1013.60
2017-09-05T01:37:03.618Z,1013.59
2017-09-05T01:38:03.573Z,1013.58
2017-09-05T01:39:03.535Z,1013.57
2017-09-05T01:40:03.502Z,1013.62
2017-09-05T01:41:03.466Z,1013.60
2017-09-05T01:42:03.425Z,1013.56
2017-09-05T01:43:03.395Z,1013.57
2017-09-05T01:44:03.361Z,1013.55
2017-09-05T01:45:03.328Z,1013.58
2017-09-05T01:46:03.297Z,1013.59
2017-09-05T01:47:03.255Z,1013.57
2017-09-05T01:48:03.223Z,1013.56
2017-09-05T01:49:03.183Z,1013.55
2017-09-05T01:50:03.155Z,1013.54
2017-09-05T01:51:03.117Z,1013.53
2017-09-05T01:52:03.083Z,1013.56
2017-09-05T01:53:03.044Z,1013.57
2017-09-05T01:54:03.011Z,1013.54
2017-09-05T01:55:02.977Z,1013.55
2017-09-05T01:56:02.941Z,1013.52
2017-09-05T01:57:02.905Z,1013.52
2017-09-05T01:58:02.876Z,1013.56
2017-09-05T01:59:02.837Z,1013.52
2017-09-05T02:00:02.809Z,1013.50
2017-09-05T02:01:02.761Z,1013.50
2017-09-05T02:02:02.742Z,1013.53
2017-09-05T02:03:02.693Z,1013.55
2017-09-05T02:04:02.661Z,1013.55
2017-09-05T02:05:02.629Z,1013.55
2017-09-05T02:06:02.587Z,1013.54
2017-09-05T02:07:02.578Z,1013.52
2017-09-05T02:08:02.523Z,1013.55
2017-09-05T02:09:02.490Z,1013.56
2017-09-05T02:10:02.452Z,1013.54
2017-09-05T02:11:02.416Z,1013.54
2017-09-05T02:12:02.379Z,1013.49
2017-09-05T02:13:02.342Z,1013.50
2017-09-05T02:14:02.311Z,1013.50
2017-09-05T02:15:02.277Z,1013.50
2017-09-05T02:16:02.234Z,1013.48
2017-09-05T02:17:02.205Z,1013.49
2017-09-05T02:18:02.172Z,1013.50
2017-09-05T02:19:02.136Z,1013.54
2017-09-05T02:20:02.091Z,1013.53
2017-09-05T02:21:02.064Z,1013.57
2017-09-05T02:22:02.028Z,1013.57
2017-09-05T02:23:01.994Z,1013.56
2017-09-05T02:24:01.952Z,1013.58
2017-09-05T02:25:01.926Z,1013.57
2017-09-05T02:26:01.891Z,1013.58
2017-09-05T02:27:01.889Z,1013.58
2017-09-05T02:28:01.816Z,1013.59
2017-09-05T02:29:01.787Z,1013.58
2017-09-05T02:30:01.744Z,1013.58
2017-09-05T02:31:01.719Z,1013.56
2017-09-05T02:32:01.674Z,1013.52
2017-09-05T02:33:01.643Z,1013.55
2017-09-05T02:34:01.606Z,1013.55
2017-09-05T02:35:01.575Z,1013.55
2017-09-05T02:36:01.540Z,1013.51
2017-09-05T02:37:01.503Z,1013.51
2017-09-05T02:38:01.466Z,1013.47
2017-09-05T02:39:01.431Z,1013.48
2017-09-05T02:40:01.396Z,1013.49
2017-09-05T02:41:01.365Z,1013.50
2017-09-05T02:42:01.325Z,1013.50
2017-09-05T02:43:01.294Z,1013.47
2017-09-05T02:44:01.258Z,1013.47
2017-09-05T02:45:01.215Z,1013.46
2017-09-05T02:46:01.184Z,1013.43
2017-09-05T02:47:01.155Z,1013.44
2017-09-05T02:48:01.110Z,1013.46
2017-09-05T02:49:01.074Z,1013.45
2017-09-05T02:50:01.044Z,1013.48
2017-09-05T02:51:01.003Z,1013.42
2017-09-05T02:52:00.979Z,1013.48
2017-09-05T02:53:00.932Z,1013.44
2017-09-05T02:54:00.907Z,1013.44
2017-09-05T02:55:00.876Z,1013.43
2017-09-05T02:56:00.827Z,1013.42
2017-09-05T02:57:00.793Z,1013.43
2017-09-05T02:58:00.762Z,1013.43
2017-09-05T02:59:00.722Z,1013.46
2017-09-05T03:00:00.704Z,1013.51
2017-09-05T03:01:00.652Z,1013.54
2017-09-05T03:02:00.621Z,1013.53
2017-09-05T03:03:00.577Z,1013.53
2017-09-05T03:04:00.550Z,1013.54
2017-09-05T03:05:00.511Z,1013.55
2017-09-05T03:06:00.478Z,1013.56
2017-09-05T03:07:00.438Z,1013.55
2017-09-05T03:08:00.408Z,1013.55
2017-09-05T03:09:00.371Z,1013.58
2017-09-05T03:10:00.333Z,1013.58
2017-09-05T03:11:00.302Z,1013.59
2017-09-05T03:12:00.262Z,1013.59
2017-09-05T03:13:00.235Z,1013.57
2017-09-05T03:14:00.193Z,1013.55
2017-09-05T03:15:00.164Z,1013.53
2017-09-05T03:16:00.121Z,1013.53
2017-09-05T03:17:00.088Z,1013.53
2017-09-05T03:18:00.047Z,1013.51
2017-09-05T03:19:00.014Z,1013.52
2017-09-05T03:19:59.985Z,1013.50
2017-09-05T03:20:59.948Z,1013.48
2017-09-05T03:21:59.913Z,1013.52
2017-09-05T03:22:59.872Z,1013.47
2017-09-05T03:23:59.844Z,1013.49
2017-09-05T03:24:59.813Z,1013.44
2017-09-05T03:25:59.782Z,1013.44
2017-09-05T03:26:59.736Z,1013.40
2017-09-05T03:27:59.698Z,1013.42
2017-09-05T03:28:59.661Z,1013.43
2017-09-05T03:29:59.624Z,1013.40
2017-09-05T03:30:59.600Z,1013.40
2017-09-05T03:31:59.553Z,1013.39
2017-09-05T03:32:59.520Z,1013.34
2017-09-05T03:33:59.480Z,1013.38
2017-09-05T03:34:59.452Z,1013.36
2017-09-05T03:35:59.415Z,1013.37
2017-09-05T03:36:59.381Z,1013.39
2017-09-05T03:37:59.342Z,1013.35
2017-09-05T03:38:59.311Z,1013.39
2017-09-05T03:39:59.269Z,1013.38
2017-09-05T03:40:59.240Z,1013.39
2017-09-05T03:41:59.201Z,1013.40
2017-09-05T03:42:59.192Z,1013.42
2017-09-05T03:43:59.130Z,1013.43
2017-09-05T03:44:59.092Z,1013.46
2017-09-05T03:45:59.057Z,1013.43
2017-09-05T03:46:59.078Z,1013.46
2017-09-05T03:47:58.982Z,1013.43
2017-09-05T03:48:58.947Z,1013.46
2017-09-05T03:49:58.912Z,1013.45
2017-09-05T03:50:58.878Z,1013.47
2017-09-05T03:51:58.844Z,1013.47
2017-09-05T03:52:58.818Z,1013.47
2017-09-05T03:53:58.772Z,1013.45
2017-09-05T03:54:58.732Z,1013.48
2017-09-05T03:55:58.737Z,1013.50
2017-09-05T03:56:58.662Z,1013.47
2017-09-05T03:57:58.626Z,1013.48
2017-09-05T03:58:58.597Z,1013.46
2017-09-05T03:59:58.565Z,1013.49
2017-09-05T04:00:58.526Z,1013.49
2017-09-05T04:01:58.493Z,1013.47
2017-09-05T04:02:58.447Z,1013.49
2017-09-05T04:03:58.413Z,1013.45
2017-09-05T04:04:58.374Z,1013.47
2017-09-05T04:05:58.342Z,1013.48
2017-09-05T04:06:58.306Z,1013.47
2017-09-05T04:07:58.281Z,1013.53
2017-09-05T04:08:58.235Z,1013.50
2017-09-05T04:09:58.202Z,1013.56
2017-09-05T04:10:58.163Z,1013.55
2017-09-05T04:11:58.127Z,1013.55
2017-09-05T04:12:58.102Z,1013.55
2017-09-05T04:13:58.059Z,1013.56
2017-09-05T04:14:58.019Z,1013.59
2017-09-05T04:15:57.993Z,1013.59
2017-09-05T04:16:57.951Z,1013.61
2017-09-05T04:17:57.915Z,1013.61
2017-09-05T04:18:57.878Z,1013.64
2017-09-05T04:19:57.842Z,1013.66
2017-09-05T04:20:57.802Z,1013.65
2017-09-05T04:21:57.774Z,1013.69
2017-09-05T04:22:57.742Z,1013.71
2017-09-05T04:23:57.702Z,1013.71
2017-09-05T04:24:57.683Z,1013.71
2017-09-05T04:25:57.633Z,1013.70
2017-09-05T04:26:57.593Z,1013.65
2017-09-05T04:27:57.558Z,1013.66
2017-09-05T04:28:57.538Z,1013.66
2017-09-05T04:29:57.483Z,1013.65
2017-09-05T04:30:57.456Z,1013.64
2017-09-05T04:31:57.414Z,1013.69
2017-09-05T04:32:57.376Z,1013.61
2017-09-05T04:33:57.342Z,1013.65
2017-09-05T04:34:57.313Z,1013.63
2017-09-05T04:35:57.276Z,1013.66
2017-09-05T04:36:57.247Z,1013.65
2017-09-05T04:37:57.202Z,1013.66
2017-09-05T04:38:57.169Z,1013.68
2017-09-05T04:39:57.130Z,1013.67
2017-09-05T04:40:57.094Z,1013.63
2017-09-05T04:41:57.055Z,1013.72
2017-09-05T04:42:57.028Z,1013.73
2017-09-05T04:43:56.994Z,1013.74
2017-09-05T04:44:56.953Z,1013.74
2017-09-05T04:45:56.919Z,1013.81
2017-09-05T04:46:56.912Z,1013.76
2017-09-05T04:47:56.845Z,1013.78
2017-09-05T04:48:56.813Z,1013.78
2017-09-05T04:49:56.781Z,1013.78
2017-09-05T04:50:56.739Z,1013.79
2017-09-05T04:51:56.702Z,1013.78
2017-09-05T04:52:56.672Z,1013.79
2017-09-05T04:53:56.643Z,1013.80
2017-09-05T04:54:56.600Z,1013.84
2017-09-05T04:55:56.573Z,1013.80
2017-09-05T04:56:56.533Z,1013.80
2017-09-05T04:57:56.498Z,1013.83
2017-09-05T04:58:56.468Z,1013.82
2017-09-05T04:59:56.435Z,1013.83
2017-09-05T05:00:56.408Z,1013.82
2017-09-05T05:01:56.364Z,1013.83
2017-09-05T05:02:56.332Z,1013.83
2017-09-05T05:03:56.297Z,1013.87
2017-09-05T05:04:56.272Z,1013.91
2017-09-05T05:05:56.226Z,1013.92
2017-09-05T05:06:56.195Z,1013.95
2017-09-05T05:07:56.163Z,1014.02
2017-09-05T05:08:56.124Z,1014.06
2017-09-05T05:09:56.093Z,1014.07
2017-09-05T05:10:56.063Z,1014.07
2017-09-05T05:11:56.028Z,1014.10
2017-09-05T05:12:55.991Z,1014.15
2017-09-05T05:13:55.971Z,1014.11
2017-09-05T05:14:55.936Z,1014.11
2017-09-05T05:15:55.893Z,1014.12
2017-09-05T05:16:55.873Z,1014.13
2017-09-05T05:17:55.830Z,1014.17
2017-09-05T05:18:55.794Z,1014.19
2017-09-05T05:19:55.768Z,1014.23
2017-09-05T05:20:55.731Z,1014.24
2017-09-05T05:21:55.707Z,1014.25
2017-09-05T05:22:55.671Z,1014.34
2017-09-05T05:23:55.644Z,1014.42
2017-09-05T05:24:55.601Z,1014.42
2017-09-05T05:25:55.577Z,1014.49
2017-09-05T05:26:55.543Z,1014.49
2017-09-05T05:27:55.510Z,1014.51
2017-09-05T05:28:55.482Z,1014.48
2017-09-05T05:29:55.450Z,1014.46
2017-09-05T05:30:55.413Z,1014.50
2017-09-05T05:31:55.394Z,1014.58
2017-09-05T05:32:55.354Z,1014.65
2017-09-05T05:33:55.340Z,1014.62
2017-09-05T05:34:55.295Z,1014.63
2017-09-05T05:35:55.263Z,1014.66
2017-09-05T05:36:55.235Z,1014.65
2017-09-05T05:37:55.312Z,1014.69
2017-09-05T05:38:55.171Z,1014.73
2017-09-05T05:39:55.188Z,1014.83
2017-09-05T05:40:55.113Z,1014.89
2017-09-05T05:41:55.086Z,1014.93
2017-09-05T05:42:55.055Z,1014.92
2017-09-05T05:43:55.023Z,1014.89
2017-09-05T05:44:54.987Z,1014.90
2017-09-05T05:45:54.958Z,1014.90
2017-09-05T05:46:54.933Z,1014.90
2017-09-05T05:47:54.900Z,1014.90
2017-09-05T05:48:54.870Z,1014.92
2017-09-05T05:49:54.850Z,1014.89
2017-09-05T05:50:54.809Z,1014.88
2017-09-05T05:51:54.778Z,1014.87
2017-09-05T05:52:54.763Z,1014.89
2017-09-05T05:53:54.722Z,1014.87
2017-09-05T05:54:54.688Z,1014.85
2017-09-05T05:55:54.661Z,1014.84
2017-09-05T05:56:54.629Z,1014.80
2017-09-05T05:57:54.603Z,1014.80
2017-09-05T05:58:54.571Z,1014.73
2017-09-05T05:59:54.541Z,1014.71
2017-09-05T06:00:54.539Z,1014.68
2017-09-05T06:01:54.486Z,1014.67
2017-09-05T06:02:54.456Z,1014.70
2017-09-05T06:03:54.421Z,1014.67
2017-09-05T06:04:54.391Z,1014.66
2017-09-05T06:05:54.372Z,1014.69
2017-09-05T06:06:54.339Z,1014.65
2017-09-05T06:07:54.313Z,1014.65
2017-09-05T06:08:54.273Z,1014.68
2017-09-05T06:09:54.245Z,1014.68
2017-09-05T06:10:54.219Z,1014.66
2017-09-05T06:11:54.185Z,1014.68
2017-09-05T06:12:54.159Z,1014.67
2017-09-05T06:13:54.129Z,1014.67
2017-09-05T06:14:54.159Z,1014.65
2017-09-05T06:15:54.076Z,1014.66
2017-09-05T06:16:54.041Z,1014.68
2017-09-05T06:17:54.016Z,1014.72
2017-09-05T06:18:53.994Z,1014.71
2017-09-05T06:19:53.960Z,1014.64
2017-09-05T06:20:53.931Z,1014.55
2017-09-05T06:21:53.899Z,1014.50
2017-09-05T06:22:53.882Z,1014.49
2017-09-05T06:23:53.844Z,1014.42
2017-09-05T06:24:53.817Z,1014.41
2017-09-05T06:25:53.779Z,1014.34
2017-09-05T06:26:53.752Z,1014.33
2017-09-05T06:27:53.721Z,1014.33
2017-09-05T06:28:53.691Z,1014.36
2017-09-05T06:29:53.662Z,1014.34
2017-09-05T06:30:53.645Z,1014.33
2017-09-05T06:31:53.607Z,1014.36
2017-09-05T06:32:53.582Z,1014.37
2017-09-05T06:33:53.560Z,1014.38
2017-09-05T06:34:53.521Z,1014.38
2017-09-05T06:35:53.498Z,1014.43
2017-09-05T06:36:53.495Z,1014.42
2017-09-05T06:37:53.439Z,1014.46
2017-09-05T06:38:53.415Z,1014.46
2017-09-05T06:39:53.377Z,1014.53
2017-09-05T06:40:53.356Z,1014.49
2017-09-05T06:41:53.330Z,1014.54
2017-09-05T06:42:53.294Z,1014.49
2017-09-05T06:43:53.272Z,1014.48
2017-09-05T06:44:53.241Z,1014.45
2017-09-05T06:45:53.253Z,1014.45
2017-09-05T06:46:53.183Z,1014.41
2017-09-05T06:47:53.157Z,1014.41
2017-09-05T06:48:53.125Z,1014.41
2017-09-05T06:49:53.097Z,1014.42
2017-09-05T06:50:53.067Z,1014.43
2017-09-05T06:51:53.048Z,1014.42
2017-09-05T06:52:53.014Z,1014.42
2017-09-05T06:53:52.984Z,1014.45
2017-09-05T06:54:52.958Z,1014.41
2017-09-05T06:55:52.924Z,1014.41
2017-09-05T06:56:52.913Z,1014.39
2017-09-05T06:57:52.870Z,1014.44
2017-09-05T06:58:52.846Z,1014.38
2017-09-05T06:59:52.839Z,1014.41
2017-09-05T07:00:52.781Z,1014.46
2017-09-05T07:01:52.755Z,1014.39
2017-09-05T07:02:52.725Z,1014.41
2017-09-05T07:03:52.701Z,1014.39
2017-09-05T07:04:52.692Z,1014.39
2017-09-05T07:05:52.636Z,1014.42
2017-09-05T07:06:52.618Z,1014.44
2017-09-05T07:07:52.594Z,1014.45
2017-09-05T07:08:52.561Z,1014.43
2017-09-05T07:09:52.527Z,1014.41
2017-09-05T07:10:52.500Z,1014.47
2017-09-05T07:11:52.465Z,1014.43
2017-09-05T07:12:52.446Z,1014.40
2017-09-05T07:13:52.566Z,1014.38
2017-09-05T07:14:52.379Z,1014.38
2017-09-05T07:15:52.358Z,1014.36
2017-09-05T07:16:52.330Z,1014.36
2017-09-05T07:17:52.296Z,1014.37
2017-09-05T07:18:52.266Z,1014.36
2017-09-05T07:19:52.237Z,1014.37
2017-09-05T07:20:52.221Z,1014.38
2017-09-05T07:21:52.179Z,1014.34
2017-09-05T07:22:52.156Z,1014.35
2017-09-05T07:23:52.122Z,1014.32
2017-09-05T07:24:52.094Z,1014.35
2017-09-05T07:25:52.071Z,1014.34
2017-09-05T07:26:52.026Z,1014.32
2017-09-05T07:27:52.002Z,1014.32
2017-09-05T07:28:51.974Z,1014.31
2017-09-05T07:29:51.940Z,1014.33
2017-09-05T07:30:51.910Z,1014.36
2017-09-05T07:31:51.899Z,1014.40
2017-09-05T07:32:51.851Z,1014.40
2017-09-05T07:33:51.818Z,1014.40
2017-09-05T07:34:51.794Z,1014.40
2017-09-05T07:35:51.765Z,1014.44
2017-09-05T07:36:51.726Z,1014.44
2017-09-05T07:37:51.700Z,1014.42
2017-09-05T07:38:51.672Z,1014.48
2017-09-05T07:39:51.640Z,1014.49
2017-09-05T07:40:51.610Z,1014.47
2017-09-05T07:41:51.579Z,1014.51
2017-09-05T07:42:51.547Z,1014.49
2017-09-05T07:43:51.514Z,1014.50
2017-09-05T07:44:51.488Z,1014.51
2017-09-05T07:45:51.457Z,1014.47
2017-09-05T07:46:51.459Z,1014.48
2017-09-05T07:47:51.391Z,1014.49
2017-09-05T07:48:51.366Z,1014.49
2017-09-05T07:49:51.329Z,1014.48
2017-09-05T07:50:51.299Z,1014.54
2017-09-05T07:51:51.274Z,1014.53
2017-09-05T07:52:51.240Z,1014.49
2017-09-05T07:53:51.206Z,1014.49
2017-09-05T07:54:51.174Z,1014.43
2017-09-05T07:55:51.162Z,1014.44
2017-09-05T07:56:51.132Z,1014.41
2017-09-05T07:57:51.082Z,1014.43
2017-09-05T07:58:51.054Z,1014.44
2017-09-05T07:59:51.018Z,1014.46
2017-09-05T08:00:50.990Z,1014.43
2017-09-05T08:01:50.969Z,1014.44
2017-09-05T08:02:50.928Z,1014.47
2017-09-05T08:03:50.896Z,1014.45
2017-09-05T08:04:50.892Z,1014.46
2017-09-05T08:05:50.831Z,1014.47
2017-09-05T08:06:50.802Z,1014.48
2017-09-05T08:07:50.765Z,1014.46
2017-09-05T08:08:50.752Z,1014.51
2017-09-05T08:09:50.712Z,1014.54
2017-09-05T08:10:50.675Z,1014.55
2017-09-05T08:11:50.652Z,1014.54
2017-09-05T08:12:50.621Z,1014.57
2017-09-05T08:13:50.590Z,1014.58
2017-09-05T08:14:50.556Z,1014.65
2017-09-05T08:15:50.535Z,1014.62
2017-09-05T08:16:50.486Z,1014.61
2017-09-05T08:17:50.460Z,1014.63
2017-09-05T08:18:50.434Z,1014.60
2017-09-05T08:19:50.404Z,1014.64
2017-09-05T08:20:50.361Z,1014.68
2017-09-05T08:21:50.335Z,1014.61
2017-09-05T08:22:50.301Z,1014.63
2017-09-05T08:23:51.089Z,1014.68
2017-09-05T08:24:50.236Z,1014.69
2017-09-05T08:25:50.214Z,1014.72
2017-09-05T08:26:50.169Z,1014.72
2017-09-05T08:27:50.148Z,1014.69
2017-09-05T08:28:50.117Z,1014.69
2017-09-05T08:29:50.089Z,1014.70
2017-09-05T08:30:50.058Z,1014.69
2017-09-05T08:31:50.022Z,1014.69
2017-09-05T08:32:49.996Z,1014.68
2017-09-05T08:33:49.957Z,1014.69
2017-09-05T08:34:49.963Z,1014.66
2017-09-05T08:35:49.894Z,1014.67
2017-09-05T08:36:49.870Z,1014.73
2017-09-05T08:37:49.837Z,1014.69
2017-09-05T08:38:49.805Z,1014.63
2017-09-05T08:39:49.771Z,1014.71
2017-09-05T08:40:49.748Z,1014.72
2017-09-05T08:41:49.703Z,1014.75
2017-09-05T08:42:49.676Z,1014.76
2017-09-05T08:43:49.641Z,1014.76
2017-09-05T08:44:49.611Z,1014.78
2017-09-05T08:45:49.587Z,1014.81
2017-09-05T08:46:49.557Z,1014.75
2017-09-05T08:47:49.521Z,1014.74
2017-09-05T08:48:49.491Z,1014.70
2017-09-05T08:49:49.463Z,1014.65
2017-09-05T08:50:49.429Z,1014.68
2017-09-05T08:51:49.398Z,1014.68
2017-09-05T08:52:49.356Z,1014.68
2017-09-05T08:53:49.330Z,1014.70
2017-09-05T08:54:49.302Z,1014.71
2017-09-05T08:55:49.278Z,1014.67
2017-09-05T08:56:49.301Z,1014.68
2017-09-05T08:57:49.206Z,1014.73
2017-09-05T08:58:49.178Z,1014.67
2017-09-05T08:59:49.142Z,1014.70
2017-09-05T09:00:49.118Z,1014.65
2017-09-05T09:01:49.078Z,1014.66
2017-09-05T09:02:49.047Z,1014.66
2017-09-05T09:03:49.019Z,1014.65
2017-09-05T09:04:48.993Z,1014.71
2017-09-05T09:05:48.975Z,1014.67
2017-09-05T09:06:48.924Z,1014.64
2017-09-05T09:07:48.899Z,1014.66
2017-09-05T09:08:48.864Z,1014.69
2017-09-05T09:09:48.839Z,1014.69
2017-09-05T09:10:48.805Z,1014.69
2017-09-05T09:11:48.773Z,1014.73
2017-09-05T09:12:48.737Z,1014.70
2017-09-05T09:13:48.725Z,1014.68
2017-09-05T09:14:48.681Z,1014.69
2017-09-05T09:15:48.657Z,1014.74
2017-09-05T09:16:48.620Z,1014.73
2017-09-05T09:17:48.598Z,1014.71
2017-09-05T09:18:48.553Z,1014.70
2017-09-05T09:19:48.528Z,1014.67
2017-09-05T09:20:48.499Z,1014.68
2017-09-05T09:21:48.471Z,1014.69
2017-09-05T09:22:48.435Z,1014.70
2017-09-05T09:23:48.405Z,1014.66
2017-09-05T09:24:48.371Z,1014.67
2017-09-05T09:25:48.359Z,1014.66
2017-09-05T09:26:48.313Z,1014.68
2017-09-05T09:27:48.286Z,1014.68
2017-09-05T09:28:48.272Z,1014.69
2017-09-05T09:29:48.230Z,1014.69
2017-09-05T09:30:48.190Z,1014.66
2017-09-05T09:31:48.173Z,1014.62
2017-09-05T09:32:48.133Z,1014.65
2017-09-05T09:33:48.655Z,1014.65
2017-09-05T09:34:48.071Z,1014.65
2017-09-05T09:35:48.687Z,1014.60
2017-09-05T09:36:48.011Z,1014.60
2017-09-05T09:37:47.973Z,1014.61
2017-09-05T09:38:47.947Z,1014.60
2017-09-05T09:39:47.920Z,1014.57
2017-09-05T09:40:47.885Z,1014.60
2017-09-05T09:41:47.856Z,1014.61
2017-09-05T09:42:47.839Z,1014.62
2017-09-05T09:43:47.805Z,1014.62
2017-09-05T09:44:47.855Z,1014.65
2017-09-05T09:45:47.728Z,1014.63
2017-09-05T09:46:47.702Z,1014.65
2017-09-05T09:47:47.673Z,1014.68
2017-09-05T09:48:47.648Z,1014.65
2017-09-05T09:49:47.612Z,1014.64
2017-09-05T09:50:47.645Z,1014.68
2017-09-05T09:51:47.543Z,1014.68
2017-09-05T09:52:47.606Z,1014.69
2017-09-05T09:53:47.485Z,1014.70
2017-09-05T09:54:47.464Z,1014.66
2017-09-05T09:55:47.428Z,1014.63
2017-09-05T09:56:47.406Z,1014.60
2017-09-05T09:57:47.365Z,1014.60
2017-09-05T09:58:47.329Z,1014.60
2017-09-05T09:59:47.306Z,1014.65
2017-09-05T10:00:47.274Z,1014.63
2017-09-05T10:01:47.253Z,1014.61
2017-09-05T10:02:47.226Z,1014.69
2017-09-05T10:03:47.292Z,1014.63
2017-09-05T10:04:47.150Z,1014.65
2017-09-05T10:05:47.120Z,1014.63
2017-09-05T10:06:47.088Z,1014.68
2017-09-05T10:07:47.061Z,1014.62
2017-09-05T10:08:47.028Z,1014.62
2017-09-05T10:09:46.995Z,1014.54
2017-09-05T10:10:47.005Z,1014.56
2017-09-05T10:11:46.945Z,1014.54
2017-09-05T10:12:46.947Z,1014.47
2017-09-05T10:13:46.882Z,1014.51
2017-09-05T10:14:46.851Z,1014.49
2017-09-05T10:15:46.911Z,1014.50
2017-09-05T10:16:46.785Z,1014.51
2017-09-05T10:17:46.775Z,1014.51
2017-09-05T10:18:46.729Z,1014.55
2017-09-05T10:19:46.702Z,1014.45
2017-09-05T10:20:46.670Z,1014.47
2017-09-05T10:21:46.638Z,1014.52
2017-09-05T10:22:46.618Z,1014.49
2017-09-05T10:23:46.572Z,1014.53
2017-09-05T10:24:46.544Z,1014.46
2017-09-05T10:25:46.526Z,1014.43
2017-09-05T10:26:46.500Z,1014.45
2017-09-05T10:27:46.453Z,1014.44
2017-09-05T10:28:46.427Z,1014.42
2017-09-05T10:29:46.395Z,1014.42
2017-09-05T10:30:46.366Z,1014.44
2017-09-05T10:31:46.335Z,1014.44
2017-09-05T10:32:46.316Z,1014.47
2017-09-05T10:33:46.283Z,1014.49
2017-09-05T10:34:46.256Z,1014.45
2017-09-05T10:35:46.228Z,1014.48
2017-09-05T10:36:46.203Z,1014.51
2017-09-05T10:37:46.159Z,1014.52
2017-09-05T10:38:46.171Z,1014.46
2017-09-05T10:39:46.099Z,1014.55
2017-09-05T10:40:46.068Z,1014.54
2017-09-05T10:41:46.039Z,1014.50
2017-09-05T10:42:46.004Z,1014.51
2017-09-05T10:43:46.010Z,1014.53
2017-09-05T10:44:45.963Z,1014.44
2017-09-05T10:45:45.922Z,1014.48
2017-09-05T10:46:45.883Z,1014.42
2017-09-05T10:47:45.868Z,1014.45
2017-09-05T10:48:45.828Z,1014.43
2017-09-05T10:49:45.801Z,1014.42
2017-09-05T10:50:45.767Z,1014.47
2017-09-05T10:51:45.744Z,1014.53
2017-09-05T10:52:45.760Z,1014.52
2017-09-05T10:53:45.710Z,1014.52
2017-09-05T10:54:45.657Z,1014.49
2017-09-05T10:55:45.623Z,1014.50
2017-09-05T10:56:45.590Z,1014.49
2017-09-05T10:57:45.555Z,1014.42
2017-09-05T10:58:45.532Z,1014.41
2017-09-05T10:59:45.499Z,1014.36
2017-09-05T11:00:45.534Z,1014.31
2017-09-05T11:01:45.450Z,1014.46
2017-09-05T11:02:45.423Z,1014.39
2017-09-05T11:03:45.384Z,1014.39
2017-09-05T11:04:45.352Z,1014.39
2017-09-05T11:05:45.339Z,1014.28
2017-09-05T11:06:45.294Z,1014.36
2017-09-05T11:07:45.294Z,1014.43
2017-09-05T11:08:45.231Z,1014.42
2017-09-05T11:09:45.198Z,1014.41
2017-09-05T11:10:45.169Z,1014.37
2017-09-05T11:11:45.149Z,1014.34
2017-09-05T11:12:45.113Z,1014.38
2017-09-05T11:13:45.085Z,1014.38
2017-09-05T11:14:45.090Z,1014.37
2017-09-05T11:15:45.021Z,1014.36
2017-09-05T11:16:45.019Z,1014.32
2017-09-05T11:17:44.975Z,1014.33
2017-09-05T11:18:44.930Z,1014.35
2017-09-05T11:19:44.911Z,1014.30
2017-09-05T11:20:44.874Z,1014.34
2017-09-05T11:21:44.852Z,1014.36
2017-09-05T11:22:44.811Z,1014.31
2017-09-05T11:23:44.784Z,1014.29
2017-09-05T11:24:44.752Z,1014.31
2017-09-05T11:25:44.727Z,1014.24
2017-09-05T11:26:44.693Z,1014.22
2017-09-05T11:27:44.688Z,1014.20
2017-09-05T11:28:44.636Z,1014.23
2017-09-05T11:29:44.606Z,1014.18
2017-09-05T11:30:44.570Z,1014.13
2017-09-05T11:31:44.545Z,1014.14
2017-09-05T11:32:44.533Z,1014.12
2017-09-05T11:33:44.487Z,1014.24
2017-09-05T11:34:44.463Z,1014.21
2017-09-05T11:35:44.435Z,1014.13
2017-09-05T11:36:44.393Z,1014.22
2017-09-05T11:37:44.373Z,1014.13
2017-09-05T11:38:44.345Z,1014.21
2017-09-05T11:39:44.486Z,1014.20
2017-09-05T11:40:44.286Z,1014.14
2017-09-05T11:41:44.268Z,1014.16
2017-09-05T11:42:44.270Z,1014.21
2017-09-05T11:43:44.193Z,1014.19
2017-09-05T11:44:44.237Z,1014.17
2017-09-05T11:45:44.141Z,1014.13
2017-09-05T11:46:44.102Z,1014.07
2017-09-05T11:47:44.080Z,1014.06
2017-09-05T11:48:44.045Z,1014.04
2017-09-05T11:49:44.014Z,1014.04
2017-09-05T11:50:43.994Z,1014.05
2017-09-05T11:51:43.956Z,1014.02
2017-09-05T11:52:43.922Z,1013.98
2017-09-05T11:53:43.904Z,1013.97
2017-09-05T11:54:43.865Z,1014.04
2017-09-05T11:55:43.841Z,1013.99
2017-09-05T11:56:43.823Z,1013.98
2017-09-05T11:57:43.781Z,1014.05
2017-09-05T11:58:43.740Z,1013.99
2017-09-05T11:59:43.719Z,1013.98
2017-09-05T12:00:43.694Z,1013.97
2017-09-05T12:01:43.663Z,1013.99
2017-09-05T12:02:43.633Z,1014.00
2017-09-05T12:03:43.601Z,1013.95
2017-09-05T12:04:43.570Z,1013.97